Flight Track Log - Related Links

Times and Time Zones

All times are in EDT time to prevent confusion due to time zone crossing. See the N93XP flight status page for this flight to view local times or setup timezone preferences in your user account.

Time Position Orientation Groundspeed Altitude Reporting Facility
EDT Latitude Longitude Course Direction KTS MPH feet Rate Location/Type
Mon 09:11:52 AM 41.6061 -87.4683 272° West 174 200 2,400  Level Chicago Center
Mon 09:12:54 AM 41.5533 -87.5075 209° Southwest 204 235 3,100 1,210 Climbing Chicago Center
Mon 09:13:56 AM 41.4742 -87.5283 191° South 254 292 4,900 878 Climbing Chicago Center
Mon 09:14:57 AM 41.4019 -87.5103 169° South 263 303 4,900 341 Level Chicago Center
Mon 09:15:59 AM 41.3367 -87.5369 197° South 249 287 5,600 871 Climbing Chicago Center
Mon 09:17:00 AM 41.2183 -87.4667 272° West  Level FlightAware Approximate
Mon 09:17:01 AM 41.2725 -87.5753 204° Southwest 251 289 6,700  Level Chicago Center
Mon 09:18:03 AM 41.2067 -87.6128 203° Southwest 255 293 7,700 1,016 Climbing Chicago Center
Mon 09:19:05 AM 41.1400 -87.6514 204° Southwest 259 298 8,800 1,113 Climbing Chicago Center
Mon 09:20:07 AM 41.0581 -87.6994 204° Southwest 267 307 10,000 581 Climbing Chicago Center
Mon 09:21:09 AM 40.9797 -87.7431 203° Southwest 299 344 10,000  Level Chicago Center
Mon 09:22:11 AM 40.8964 -87.7908 203° Southwest 323 372 10,000 -48 Level Chicago Center
Mon 09:23:13 AM 40.8164 -87.8369 204° Southwest 317 365 9,900  Descending Chicago Center
Mon 09:24:15 AM 40.7356 -87.8842 204° Southwest 318 366 10,000  Climbing Chicago Center
Mon 09:25:17 AM 40.6528 -87.9283 202° Southwest 319 367 9,900 -532 Descending Chicago Center
Mon 09:26:19 AM 40.5575 -87.9786 202° Southwest 310 357 8,900 -1,065 Descending Chicago Center
Mon 09:27:21 AM 40.4892 -88.0147 202° Southwest 275 316 7,700 -1,161 Descending Chicago Center
Mon 09:28:23 AM 40.4211 -88.0500 202° Southwest 264 304 6,500 -1,161 Descending Chicago Center
Mon 09:29:25 AM 40.3522 -88.0856 201° Southwest 267 307 5,300 -1,210 Descending Chicago Center
Mon 09:30:27 AM 40.2836 -88.1219 202° Southwest 268 308 4,000 -1,161 Descending Chicago Center
Mon 09:31:29 AM 40.2142 -88.1572 201° Southwest 268 308 2,900 -581 Descending Chicago Center
Mon 09:32:31 AM 40.1372 -88.1983 202° Southwest 266 306 2,800 -387 Descending Chicago Center
Mon 09:33:33 AM 40.0900 -88.2214 200° South 236 272 2,100 -484 Descending Chicago Center
Mon 09:34:35 AM 40.0608 -88.2392 205° Southwest 203 234 1,800 -290 Descending Chicago Center

Login

Don't have an account? Register now (free) for customized features, flight alerts, and more!